Time;durP1;ratioP1;P1;durP2;ratioP2;P2;SDS_P1;SDS_P2;PMS_P1;PMS_P2;Temp;Humidity;BMP_temperature;BMP_pressure;BME280_temperature;BME280_humidity;BME280_pressure;Samples;Min_cycle;Max_cycle;Signal;HPM_P1;HPM_P2
2022/10/21 00:01:51;;;;;;;3.72;2.35;;;;;;;6.17;85.26;95526.38;5171620;27;20200;-77
2022/10/21 00:04:18;;;;;;;5.00;2.10;;;;;;;6.13;85.40;95521.88;5159314;27;20263;-77
2022/10/21 00:06:45;;;;;;;4.97;2.92;;;;;;;6.12;85.51;95529.13;5158815;27;20243;-76
2022/10/21 00:09:12;;;;;;;7.72;5.18;;;;;;;6.12;85.61;95525.63;5172307;27;20211;-77
2022/10/21 00:11:40;;;;;;;9.93;5.45;;;;;;;6.07;85.29;95521.06;5172737;27;20219;-77
2022/10/21 00:14:07;;;;;;;7.72;5.53;;;;;;;6.08;85.85;95517.31;5172521;27;20841;-76
2022/10/21 00:16:34;;;;;;;9.10;5.57;;;;;;;6.08;85.60;95517.31;5173097;27;20204;-77
2022/10/21 00:19:00;;;;;;;8.93;5.38;;;;;;;6.00;85.34;95512.53;5172583;27;20276;-77
2022/10/21 00:21:27;;;;;;;6.88;4.90;;;;;;;5.91;85.30;95517.66;5172449;27;20267;-77
2022/10/21 00:23:54;;;;;;;3.55;2.22;;;;;;;5.98;85.35;95512.00;5172236;27;20897;-77
2022/10/21 00:26:21;;;;;;;4.32;2.53;;;;;;;5.90;84.89;95510.66;5172476;27;20782;-77
2022/10/21 00:28:55;;;;;;;3.17;2.08;;;;;;;5.90;85.05;95515.22;5162804;27;20204;-76
2022/10/21 00:31:22;;;;;;;3.47;2.13;;;;;;;5.82;85.38;95513.09;5171477;27;20226;-76
2022/10/21 00:33:48;;;;;;;4.15;2.83;;;;;;;5.70;85.94;95516.91;5176477;27;20207;-76
2022/10/21 00:36:15;;;;;;;4.68;2.58;;;;;;;5.59;86.45;95509.97;5172936;27;20196;-75
2022/10/21 00:38:43;;;;;;;6.18;2.28;;;;;;;5.60;86.88;95505.41;5166481;27;20196;-76
2022/10/21 00:41:11;;;;;;;4.20;1.92;;;;;;;5.51;87.57;95505.16;5176877;27;20403;-77
2022/10/21 00:46:37;;;;;;;2.92;1.90;;;;;;;5.53;87.16;95508.38;5143907;27;20510;-76
2022/10/21 00:49:08;;;;;;;5.20;2.63;;;;;;;5.50;87.92;95500.84;5127838;27;20200;-76
2022/10/21 00:51:36;;;;;;;6.07;2.80;;;;;;;5.47;87.93;95497.91;5128137;27;20591;-76
2022/10/21 00:54:04;;;;;;;12.25;5.50;;;;;;;5.52;88.07;95497.88;5128071;27;20265;-76
2022/10/21 00:56:33;;;;;;;11.77;5.85;;;;;;;5.47;88.38;95492.53;5118092;27;20208;-76
2022/10/21 00:59:02;;;;;;;2.97;1.85;;;;;;;5.45;88.48;95492.81;5111586;28;20266;-75
2022/10/21 01:01:31;;;;;;;3.58;2.33;;;;;;;5.43;87.85;95489.59;5117980;27;20205;-74
2022/10/21 01:03:57;;;;;;;4.50;2.70;;;;;;;5.46;87.97;95485.56;5121587;28;20524;-75
2022/10/21 01:06:26;;;;;;;4.53;2.45;;;;;;;5.43;87.74;95486.91;5107556;28;20708;-76
2022/10/21 01:08:55;;;;;;;3.70;2.90;;;;;;;5.47;87.62;95496.00;5107265;28;20206;-77
2022/10/21 01:11:24;;;;;;;3.40;2.58;;;;;;;5.45;87.31;95492.03;5120097;28;20273;-77
2022/10/21 01:14:27;;;;;;;3.22;2.28;;;;;;;5.44;87.75;95496.59;5114133;27;20250;-77
2022/10/21 01:17:05;;;;;;;4.93;3.25;;;;;;;5.45;87.88;95492.81;5117555;28;20197;-77
2022/10/21 01:20:02;;;;;;;2.80;2.10;;;;;;;5.45;87.42;95492.03;5127865;27;20241;-77
2022/10/21 01:22:51;;;;;;;3.58;2.25;;;;;;;5.49;86.94;95498.44;5134831;27;20192;-76
2022/10/21 01:25:47;;;;;;;2.78;1.85;;;;;;;5.39;87.56;95493.91;5114132;28;20268;-76
2022/10/21 01:28:27;;;;;;;6.22;3.25;;;;;;;5.37;88.18;95501.44;5095213;27;20429;-77
2022/10/21 01:30:59;;;;;;;5.93;3.00;;;;;;;5.35;88.33;95503.56;5106959;28;20193;-77
2022/10/21 01:33:39;;;;;;;4.30;2.65;;;;;;;5.23;88.42;95505.75;5120708;27;20182;-77
2022/10/21 01:36:16;;;;;;;5.97;2.90;;;;;;;5.32;88.51;95509.53;5121095;28;20197;-77
2022/10/21 01:38:47;;;;;;;2.30;2.10;;;;;;;5.32;87.86;95498.78;5118011;28;20220;-76
2022/10/21 01:41:26;;;;;;;4.50;2.75;;;;;;;5.33;87.93;95503.84;5113925;27;20221;-76
2022/10/21 01:44:02;;;;;;;4.05;2.67;;;;;;;5.21;88.62;95507.91;5113952;27;20205;-76
2022/10/21 01:46:35;;;;;;;4.50;2.78;;;;;;;5.20;89.10;95512.47;5114548;28;20623;-76
2022/10/21 01:49:07;;;;;;;4.18;2.22;;;;;;;5.17;88.92;95512.22;5112095;27;20198;-76
2022/10/21 01:51:36;;;;;;;4.63;3.20;;;;;;;5.18;88.87;95509.28;5106985;28;20243;-76
2022/10/21 01:54:07;;;;;;;6.72;3.40;;;;;;;5.19;89.22;95521.63;5120360;28;20283;-76
2022/10/21 01:56:36;;;;;;;12.07;6.65;;;;;;;5.23;89.35;95521.88;5111698;28;20543;-76
2022/10/21 01:59:05;;;;;;;9.95;6.65;;;;;;;5.22;89.18;95520.25;5100418;28;20305;-76
2022/10/21 02:01:35;;;;;;;11.40;6.32;;;;;;;5.09;89.96;95520.81;5102238;28;20217;-76
2022/10/21 02:04:04;;;;;;;14.27;7.45;;;;;;;5.12;90.36;95521.09;5107069;28;20267;-76
2022/10/21 02:06:31;;;;;;;11.45;6.78;;;;;;;5.21;90.11;95524.03;5105724;28;20695;-76
2022/10/21 02:08:58;;;;;;;11.57;7.15;;;;;;;5.09;90.36;95520.81;5099916;28;20201;-76
2022/10/21 02:11:25;;;;;;;11.63;6.97;;;;;;;5.06;90.46;95524.84;5101209;28;20267;-76
2022/10/21 02:13:56;;;;;;;12.18;7.70;;;;;;;4.99;91.12;95517.09;5093015;28;20223;-76
2022/10/21 02:16:26;;;;;;;4.32;2.92;;;;;;;4.96;91.24;95519.50;5106952;28;20250;-76
2022/10/21 02:18:56;;;;;;;4.10;2.90;;;;;;;4.99;91.68;95525.13;5101479;28;20217;-76
2022/10/21 02:21:28;;;;;;;6.80;3.88;;;;;;;4.98;91.61;95520.03;5114884;27;20210;-76
2022/10/21 02:23:59;;;;;;;9.38;3.80;;;;;;;4.98;92.00;95522.72;5114668;27;20665;-75
2022/10/21 02:26:27;;;;;;;6.28;4.30;;;;;;;5.04;92.03;95523.53;5109451;28;20210;-75
2022/10/21 02:28:57;;;;;;;6.65;3.20;;;;;;;4.97;91.85;95519.22;5101812;28;20754;-74
2022/10/21 02:31:52;;;;;;;5.03;2.90;;;;;;;4.92;92.56;95529.19;5105633;28;20714;-76
2022/10/21 02:34:29;;;;;;;3.42;2.35;;;;;;;4.99;92.04;95522.44;5108246;28;20231;-76
2022/10/21 02:37:03;;;;;;;9.90;4.13;;;;;;;5.04;92.01;95528.91;5103307;28;20202;-76
2022/10/21 02:39:34;;;;;;;15.68;8.00;;;;;;;4.94;91.53;95529.69;5106277;28;20267;-76
2022/10/21 02:42:04;;;;;;;12.13;8.23;;;;;;;4.85;92.74;95525.94;5103849;28;20197;-75
2022/10/21 02:44:31;;;;;;;15.38;8.70;;;;;;;4.91;92.24;95533.75;5098681;28;20639;-76
2022/10/21 02:46:58;;;;;;;14.25;8.02;;;;;;;4.72;91.85;95532.66;5100278;28;20284;-76
2022/10/21 02:49:26;;;;;;;4.93;3.20;;;;;;;4.82;91.88;95532.66;5092803;28;20209;-75
2022/10/21 02:51:53;;;;;;;7.30;3.38;;;;;;;4.83;92.78;95533.47;5093337;28;20612;-76
2022/10/21 02:54:20;;;;;;;7.22;3.60;;;;;;;4.99;92.51;95538.56;5106056;28;20700;-75
2022/10/21 02:56:47;;;;;;;7.18;4.20;;;;;;;5.06;92.21;95540.19;5092157;28;20206;-75
2022/10/21 02:59:14;;;;;;;7.15;3.90;;;;;;;5.00;91.45;95540.19;5105757;28;20275;-75
2022/10/21 03:01:41;;;;;;;9.43;3.50;;;;;;;5.03;91.10;95535.34;5104605;28;20210;-76
2022/10/21 03:04:07;;;;;;;7.82;3.25;;;;;;;5.06;90.92;95537.50;5098535;28;20210;-76
2022/10/21 03:06:35;;;;;;;5.07;2.83;;;;;;;4.99;91.52;95537.75;5100103;28;20291;-76
2022/10/21 03:09:04;;;;;;;4.47;3.88;;;;;;;4.87;90.60;95538.03;5105208;28;20199;-75
2022/10/21 03:11:30;;;;;;;4.32;2.85;;;;;;;4.71;91.98;95539.09;5092161;28;20205;-75
2022/10/21 03:13:57;;;;;;;8.20;4.30;;;;;;;4.74;92.20;95546.63;5099264;28;20197;-75
2022/10/21 03:16:24;;;;;;;7.22;4.72;;;;;;;4.73;91.13;95546.88;5098585;28;20222;-75
2022/10/21 03:18:51;;;;;;;5.45;3.35;;;;;;;4.74;92.00;95546.63;5104791;28;20271;-75
2022/10/21 03:21:17;;;;;;;7.75;3.63;;;;;;;4.78;92.22;95547.72;5092299;27;20225;-75
2022/10/21 03:23:45;;;;;;;5.90;3.92;;;;;;;4.88;92.13;95547.69;5124516;27;20213;-76
2022/10/21 03:26:12;;;;;;;5.75;3.65;;;;;;;4.86;91.21;95549.84;5098323;28;20294;-75
2022/10/21 03:28:39;;;;;;;6.93;3.92;;;;;;;4.66;91.84;95544.47;5103685;28;20294;-75
2022/10/21 03:31:06;;;;;;;8.38;4.68;;;;;;;4.76;92.14;95547.16;5105177;28;20255;-75
2022/10/21 03:33:32;;;;;;;4.53;3.38;;;;;;;4.58;90.49;95548.50;5092326;28;20665;-76
2022/10/21 03:35:59;;;;;;;8.05;4.45;;;;;;;4.63;90.56;95550.38;5101201;28;20400;-76
2022/10/21 03:38:26;;;;;;;6.82;4.53;;;;;;;4.62;91.09;95548.78;5096857;28;20254;-76
2022/10/21 03:40:54;;;;;;;5.35;3.40;;;;;;;4.68;91.76;95552.25;5096951;28;20222;-75
2022/10/21 03:43:21;;;;;;;13.27;6.00;;;;;;;4.59;91.19;95551.97;5101732;28;20202;-75
2022/10/21 03:45:48;;;;;;;11.63;4.90;;;;;;;4.56;91.46;95555.19;5104431;28;20290;-75
2022/10/21 03:48:14;;;;;;;9.65;4.65;;;;;;;4.53;92.33;95555.72;5100226;28;20205;-76
2022/10/21 03:50:41;;;;;;;9.80;5.32;;;;;;;4.53;92.67;95553.84;5097349;28;20685;-76
2022/10/21 03:53:08;;;;;;;11.73;5.57;;;;;;;4.61;92.67;95553.31;5101960;28;20198;-76
2022/10/21 03:55:35;;;;;;;9.55;4.45;;;;;;;4.65;92.62;95550.88;5104470;28;20224;-75
2022/10/21 03:58:03;;;;;;;6.50;4.03;;;;;;;4.69;92.15;95554.66;5101015;28;20258;-74
2022/10/21 04:00:29;;;;;;;7.18;4.85;;;;;;;4.58;91.97;95556.53;5097314;28;20213;-75
2022/10/21 04:02:56;;;;;;;5.32;3.45;;;;;;;4.61;92.51;95563.25;5100998;28;20200;-75
2022/10/21 04:05:23;;;;;;;6.97;3.63;;;;;;;4.63;92.69;95561.91;5103606;28;20517;-75
2022/10/21 04:07:50;;;;;;;7.85;4.35;;;;;;;4.70;92.76;95560.84;5090836;28;20611;-75
2022/10/21 04:10:17;;;;;;;8.32;4.28;;;;;;;4.70;92.41;95560.84;5094448;28;20205;-74
2022/10/21 04:12:43;;;;;;;10.02;6.10;;;;;;;4.70;92.23;95556.28;5099900;28;20495;-76
2022/10/21 04:15:13;;;;;;;7.80;4.70;;;;;;;4.62;91.98;95565.69;5107966;28;20234;-75
2022/10/21 04:17:40;;;;;;;7.18;4.47;;;;;;;4.63;92.35;95555.75;5099508;28;20622;-75
2022/10/21 04:20:08;;;;;;;7.72;4.43;;;;;;;4.68;91.99;95558.41;5094901;28;20782;-75
2022/10/21 04:22:35;;;;;;;12.95;8.60;;;;;;;4.67;91.91;95554.13;5121800;27;20201;-75
2022/10/21 04:25:02;;;;;;;14.27;9.13;;;;;;;4.61;92.94;95553.31;5098470;27;20659;-75
2022/10/21 04:27:28;;;;;;;15.43;9.10;;;;;;;4.68;93.23;95552.25;5098909;28;20230;-75
2022/10/21 04:29:55;;;;;;;12.63;8.20;;;;;;;4.69;92.92;95543.13;5089813;28;20676;-76
2022/10/21 04:32:23;;;;;;;14.68;9.60;;;;;;;4.74;92.98;95546.63;5102677;28;20664;-75
2022/10/21 04:34:50;;;;;;;7.60;3.97;;;;;;;4.71;92.63;95557.88;5097491;28;20205;-76
2022/10/21 04:37:17;;;;;;;6.00;3.55;;;;;;;4.75;92.72;95556.28;5097875;28;20214;-74
2022/10/21 04:39:43;;;;;;;4.82;3.70;;;;;;;4.59;92.06;95560.03;5104136;28;20222;-75
2022/10/21 04:42:10;;;;;;;5.15;3.38;;;;;;;4.43;92.24;95555.72;5103220;28;20256;-76
2022/10/21 04:44:38;;;;;;;5.85;3.90;;;;;;;4.37;92.35;95551.41;5097210;28;20233;-75
2022/10/21 04:47:05;;;;;;;13.25;5.43;;;;;;;4.28;92.27;95559.97;5097076;28;20226;-76
2022/10/21 04:49:33;;;;;;;6.00;4.07;;;;;;;4.46;93.01;95555.19;5104174;28;20734;-76
2022/10/21 04:52:00;;;;;;;9.75;4.32;;;;;;;4.54;92.25;95554.66;5104143;28;20226;-75
2022/10/21 04:54:27;;;;;;;7.53;3.88;;;;;;;4.48;92.65;95564.56;5096681;28;20213;-74
2022/10/21 04:56:54;;;;;;;8.05;4.82;;;;;;;4.57;92.50;95557.59;5096837;28;20201;-75
2022/10/21 04:59:21;;;;;;;8.80;4.95;;;;;;;4.93;91.40;95549.56;5103198;28;20201;-75
2022/10/21 05:01:47;;;;;;;8.95;5.00;;;;;;;5.04;90.77;95555.75;5090835;28;20206;-75
2022/10/21 05:04:14;;;;;;;8.10;4.55;;;;;;;5.05;90.77;95552.00;5103304;28;20297;-76
2022/10/21 05:06:42;;;;;;;10.45;5.35;;;;;;;5.18;90.26;95551.44;5103356;28;20225;-74
2022/10/21 05:09:09;;;;;;;7.80;3.92;;;;;;;5.33;89.26;95548.72;5097837;28;20290;-76
2022/10/21 05:11:36;;;;;;;9.13;5.28;;;;;;;5.52;87.36;95555.13;5095086;28;20759;-76
2022/10/21 05:14:03;;;;;;;8.05;4.65;;;;;;;5.89;87.88;95553.97;5098548;28;20201;-76
2022/10/21 05:16:30;;;;;;;9.23;4.55;;;;;;;6.68;86.85;95558.41;5108981;28;20202;-75
2022/10/21 05:18:56;;;;;;;11.95;5.70;;;;;;;7.61;85.13;95549.22;5098420;28;20229;-75
2022/10/21 05:21:23;;;;;;;7.28;4.90;;;;;;;8.38;81.04;95550.75;5098164;28;20331;-75
2022/10/21 05:23:51;;;;;;;13.80;5.95;;;;;;;9.24;76.21;95541.34;5112335;27;20614;-75
2022/10/21 05:26:18;;;;;;;13.27;4.97;;;;;;;9.86;72.43;95541.81;5091721;28;20295;-76
2022/10/21 05:28:45;;;;;;;17.20;5.20;;;;;;;10.08;70.00;95543.03;5101426;28;20620;-77
2022/10/21 05:31:11;;;;;;;12.77;6.15;;;;;;;10.11;69.91;95534.31;5104057;28;20446;-76
2022/10/21 05:33:38;;;;;;;12.25;6.18;;;;;;;10.66;68.52;95541.25;5103594;28;20206;-76
2022/10/21 05:36:07;;;;;;;11.75;6.18;;;;;;;11.07;66.74;95540.31;5100225;28;20210;-76
2022/10/21 05:38:34;;;;;;;10.73;5.43;;;;;;;11.52;65.26;95541.09;5104069;28;20206;-77
2022/10/21 05:41:03;;;;;;;16.83;5.85;;;;;;;12.19;63.63;95537.41;5107716;28;20248;-75
2022/10/21 05:43:29;;;;;;;13.73;6.07;;;;;;;12.61;61.62;95533.97;5104076;28;20255;-77
2022/10/21 05:45:56;;;;;;;12.20;5.72;;;;;;;13.35;60.75;95525.69;5100356;28;20290;-75
2022/10/21 05:48:24;;;;;;;13.57;5.78;;;;;;;13.35;61.05;95536.59;5103387;28;20255;-75
2022/10/21 05:50:52;;;;;;;10.13;4.82;;;;;;;13.01;61.85;95536.56;5098020;28;20210;-75
2022/10/21 05:53:20;;;;;;;21.85;9.15;;;;;;;13.65;59.70;95533.97;5102172;28;20824;-76
2022/10/21 05:55:54;;;;;;;10.85;5.70;;;;;;;13.85;59.12;95541.41;5098355;28;20209;-75
2022/10/21 05:58:23;;;;;;;11.50;6.72;;;;;;;13.65;60.08;95539.41;5100935;27;20688;-76
2022/10/21 06:00:50;;;;;;;9.10;5.85;;;;;;;13.58;60.45;95549.97;5107085;28;20602;-76
2022/10/21 06:03:17;;;;;;;18.45;6.50;;;;;;;13.95;59.80;95553.88;5106338;28;20209;-76
2022/10/21 06:05:44;;;;;;;13.98;7.78;;;;;;;14.31;57.33;95556.16;5093276;27;20206;-76
2022/10/21 06:08:11;;;;;;;9.75;5.82;;;;;;;14.33;58.02;95564.78;5106985;28;20198;-75
2022/10/21 06:10:37;;;;;;;12.15;6.35;;;;;;;14.48;57.96;95567.00;5099637;28;20198;-76
2022/10/21 06:13:04;;;;;;;11.38;5.97;;;;;;;14.62;54.93;95561.31;5099609;28;20202;-76
2022/10/21 06:15:32;;;;;;;10.55;6.07;;;;;;;14.91;54.36;95561.25;5107187;28;20267;-76
2022/10/21 06:17:59;;;;;;;15.55;9.07;;;;;;;15.13;53.61;95576.50;5093282;28;20226;-75
2022/10/21 06:20:26;;;;;;;10.65;5.20;;;;;;;14.81;55.31;95575.28;5095414;28;20206;-76
2022/10/21 06:22:53;;;;;;;10.65;6.47;;;;;;;14.75;56.51;95577.44;5112800;28;20197;-76
2022/10/21 06:25:27;;;;;;;11.68;6.30;;;;;;;15.07;55.86;95573.19;5092803;28;20202;-76
2022/10/21 06:27:54;;;;;;;16.10;9.30;;;;;;;14.79;55.44;95572.88;5105243;28;20768;-77
2022/10/21 06:30:21;;;;;;;13.23;6.47;;;;;;;14.54;56.70;95582.03;5091953;28;20206;-77
2022/10/21 06:32:50;;;;;;;14.68;5.65;;;;;;;14.60;55.44;95577.19;5105371;28;20231;-77
2022/10/21 06:35:20;;;;;;;8.25;5.65;;;;;;;13.49;58.91;95553.53;5100131;28;20205;-76
2022/10/21 06:37:47;;;;;;;18.92;10.07;;;;;;;13.13;59.57;95577.53;5097779;28;20281;-77
2022/10/21 06:40:13;;;;;;;9.13;6.55;;;;;;;13.30;60.82;95583.00;5096239;28;20433;-77
2022/10/21 06:42:40;;;;;;;15.23;7.07;;;;;;;13.20;60.38;95587.97;5105701;28;20672;-76
2022/10/21 06:45:07;;;;;;;14.15;6.97;;;;;;;13.15;61.54;95591.66;5100483;28;20237;-77
2022/10/21 06:47:34;;;;;;;13.00;5.88;;;;;;;12.21;64.00;95600.38;5099063;28;20283;-76
2022/10/21 06:50:02;;;;;;;19.45;10.77;;;;;;;12.16;64.55;95597.81;5103209;27;20610;-76
2022/10/21 06:52:30;;;;;;;10.45;5.25;;;;;;;11.15;67.45;95604.66;5095212;28;20267;-76
2022/10/21 06:54:56;;;;;;;15.35;7.20;;;;;;;10.48;70.15;95607.22;5102697;28;20289;-77
2022/10/21 06:57:23;;;;;;;22.38;6.43;;;;;;;11.01;69.71;95603.91;5106484;28;20199;-77
2022/10/21 06:59:50;;;;;;;11.95;6.15;;;;;;;11.33;69.07;95606.41;5102212;28;20202;-76
2022/10/21 07:02:17;;;;;;;8.50;5.03;;;;;;;11.23;69.72;95603.91;5098142;28;20198;-76
2022/10/21 07:04:44;;;;;;;10.57;5.60;;;;;;;11.13;70.00;95609.59;5101719;28;20835;-77
2022/10/21 07:07:12;;;;;;;13.07;4.78;;;;;;;10.89;70.71;95603.63;5094807;28;20237;-77
2022/10/21 07:09:39;;;;;;;6.47;4.68;;;;;;;10.50;72.45;95601.50;5103363;28;20206;-77
2022/10/21 07:12:06;;;;;;;11.90;3.65;;;;;;;10.22;73.62;95612.34;5093850;28;20252;-76
2022/10/21 07:14:33;;;;;;;8.50;4.78;;;;;;;10.17;74.40;95609.72;5091685;28;20723;-76
2022/10/21 07:17:00;;;;;;;5.18;3.55;;;;;;;10.18;74.22;95599.69;5105757;28;20251;-77
2022/10/21 07:19:27;;;;;;;7.55;4.05;;;;;;;10.20;74.18;95611.03;5091922;28;20232;-75
2022/10/21 07:21:54;;;;;;;7.05;4.00;;;;;;;10.30;73.85;95602.72;5116185;27;20632;-77
2022/10/21 07:24:22;;;;;;;7.55;3.65;;;;;;;10.46;74.58;95612.13;5119971;27;20256;-77
2022/10/21 07:26:49;;;;;;;7.15;4.32;;;;;;;10.23;74.15;95607.75;5098409;28;20258;-75
2022/10/21 07:29:16;;;;;;;13.18;4.20;;;;;;;10.26;74.17;95613.34;5098955;28;20723;-77
2022/10/21 07:31:43;;;;;;;7.95;4.15;;;;;;;10.22;74.16;95608.84;5104760;28;20611;-77
2022/10/21 07:34:12;;;;;;;11.10;5.03;;;;;;;10.50;73.65;95606.94;5091227;28;20237;-78
2022/10/21 07:36:41;;;;;;;11.15;5.13;;;;;;;10.90;72.14;95606.06;5104691;28;20584;-79
2022/10/21 07:39:10;;;;;;;7.80;4.43;;;;;;;11.02;71.77;95608.22;5105168;28;20768;-77
2022/10/21 07:41:41;;;;;;;9.98;5.18;;;;;;;10.51;73.22;95598.50;5103599;28;20194;-77
2022/10/21 07:44:08;;;;;;;12.85;6.70;;;;;;;10.79;72.78;95603.88;5104312;28;20182;-80
2022/10/21 07:46:37;;;;;;;14.73;4.97;;;;;;;10.83;72.73;95594.00;5090864;28;20275;-79
2022/10/21 07:49:04;;;;;;;15.23;7.03;;;;;;;11.03;71.95;95598.97;5090367;28;20210;-78
2022/10/21 07:51:31;;;;;;;10.00;4.78;;;;;;;10.96;72.64;95593.16;5099890;28;20200;-79
2022/10/21 07:53:59;;;;;;;9.40;4.22;;;;;;;11.23;72.00;95598.50;5096640;28;20278;-79
2022/10/21 07:56:28;;;;;;;11.07;4.93;;;;;;;10.83;72.15;95600.22;5101441;28;20206;-80
2022/10/21 07:58:57;;;;;;;7.45;3.30;;;;;;;10.79;72.62;95598.47;5090738;28;20646;-77
2022/10/21 08:01:24;;;;;;;13.15;6.50;;;;;;;10.80;72.81;95594.59;5099941;28;20330;-75
2022/10/21 08:03:53;;;;;;;12.05;5.68;;;;;;;10.83;72.98;95594.00;5094241;28;20195;-78
2022/10/21 08:06:19;;;;;;;8.45;4.22;;;;;;;10.94;72.36;95589.94;5101389;28;20202;-77
2022/10/21 08:08:47;;;;;;;10.63;5.72;;;;;;;10.92;72.55;95595.72;5106048;28;20283;-77
2022/10/21 08:11:21;;;;;;;10.10;5.32;;;;;;;10.81;72.50;95586.19;5096454;28;20182;-76
2022/10/21 08:13:48;;;;;;;10.55;4.97;;;;;;;11.06;72.34;95584.81;5090874;28;20254;-77
2022/10/21 08:16:16;;;;;;;11.30;5.63;;;;;;;10.93;72.46;95589.16;5103565;28;20266;-78
2022/10/21 08:18:43;;;;;;;11.82;5.45;;;;;;;10.95;72.75;95580.72;5091164;28;20234;-76
2022/10/21 08:21:09;;;;;;;5.63;3.13;;;;;;;10.82;72.98;95584.28;5104140;28;20227;-77
2022/10/21 08:23:37;;;;;;;8.55;4.93;;;;;;;10.87;72.22;95589.59;5124287;27;20369;-79
2022/10/21 08:26:04;;;;;;;10.32;6.03;;;;;;;10.96;71.91;95572.28;5097472;28;20202;-78
2022/10/21 08:28:31;;;;;;;2.60;2.05;;;;;;;11.27;71.46;95579.69;5103654;28;20699;-80
2022/10/21 08:31:06;;;;;;;13.15;5.85;;;;;;;11.54;71.09;95574.13;5104412;28;20635;-77
2022/10/21 08:33:34;;;;;;;10.55;5.22;;;;;;;11.26;71.75;95581.63;5099021;28;20204;-79
2022/10/21 08:36:05;;;;;;;9.00;4.82;;;;;;;11.40;71.61;95587.78;5107096;28;20814;-76
2022/10/21 08:38:32;;;;;;;10.73;6.00;;;;;;;11.36;71.72;95569.69;5091478;28;20226;-80
2022/10/21 08:41:00;;;;;;;10.82;6.18;;;;;;;11.43;72.23;95564.66;5104602;28;20664;-77
2022/10/21 08:43:30;;;;;;;13.18;6.63;;;;;;;11.57;71.70;95570.00;5100335;28;20293;-78
2022/10/21 08:46:01;;;;;;;11.20;5.82;;;;;;;11.84;71.10;95569.88;5106804;28;20837;-82
2022/10/21 08:48:33;;;;;;;11.25;4.90;;;;;;;11.85;70.55;95560.63;5095556;28;20296;-78
2022/10/21 08:51:06;;;;;;;10.65;4.97;;;;;;;11.51;71.22;95566.63;5096485;28;20209;-80
2022/10/21 08:53:38;;;;;;;12.63;7.38;;;;;;;11.92;70.02;95560.16;5106940;28;20239;-78
2022/10/21 08:56:10;;;;;;;23.58;11.43;;;;;;;11.69;70.35;95570.22;5102833;28;20190;-81
2022/10/21 08:58:37;;;;;;;11.77;6.28;;;;;;;11.92;70.09;95555.53;5103278;28;20198;-79
2022/10/21 09:01:12;;;;;;;11.07;4.80;;;;;;;12.17;69.70;95551.28;5095303;28;20202;-78
2022/10/21 09:03:44;;;;;;;13.93;6.63;;;;;;;12.27;69.15;95550.22;5100648;28;20980;-78
2022/10/21 09:06:24;;;;;;;12.32;7.13;;;;;;;12.38;68.33;95554.25;5103365;28;20185;-77
2022/10/21 09:09:01;;;;;;;11.95;5.25;;;;;;;12.60;67.81;95553.31;5098756;28;20218;-79
2022/10/21 09:11:42;;;;;;;13.63;6.15;;;;;;;12.39;67.59;95547.69;5106508;28;20200;-81
2022/10/21 09:14:42;;;;;;;8.05;3.63;;;;;;;12.57;67.43;95535.75;5107593;28;20189;-75
2022/10/21 09:17:21;;;;;;;9.27;5.32;;;;;;;12.79;67.24;95530.19;5107185;28;20222;-84
2022/10/21 09:19:55;;;;;;;11.38;5.57;;;;;;;12.88;66.51;95527.44;5095578;28;21090;-78
2022/10/21 09:22:41;;;;;;;11.27;5.05;;;;;;;12.75;66.90;95529.19;5113047;27;20184;-80
2022/10/21 09:25:19;;;;;;;5.57;4.32;;;;;;;12.82;66.09;95529.53;5110452;27;20240;-79
2022/10/21 09:27:46;;;;;;;7.60;5.45;;;;;;;13.08;65.41;95526.00;5098211;28;20218;-78
2022/10/21 09:30:16;;;;;;;10.80;5.80;;;;;;;13.10;65.80;95523.78;5107710;28;20716;-77
2022/10/21 09:32:48;;;;;;;10.70;5.38;;;;;;;12.66;65.98;95525.69;5100792;28;20204;-79
2022/10/21 09:35:22;;;;;;;10.27;5.60;;;;;;;12.73;66.35;95514.31;5099307;28;20197;-77
2022/10/21 09:37:56;;;;;;;9.90;5.38;;;;;;;12.95;66.37;95506.03;5107061;28;20722;-75
2022/10/21 09:40:24;;;;;;;10.93;6.38;;;;;;;12.97;65.20;95508.44;5098431;28;20206;-76
2022/10/21 09:42:54;;;;;;;4.55;3.25;;;;;;;13.32;64.64;95510.00;5102755;28;20210;-84
2022/10/21 09:45:26;;;;;;;10.68;5.90;;;;;;;12.98;64.53;95516.28;5106629;28;20612;-80
2022/10/21 09:47:58;;;;;;;19.33;9.98;;;;;;;13.20;64.63;95517.22;5106747;28;20848;-81
2022/10/21 09:50:27;;;;;;;10.13;5.93;;;;;;;13.20;64.38;95512.59;5106813;28;20259;-80
2022/10/21 09:53:01;;;;;;;8.48;4.82;;;;;;;13.30;64.30;95511.44;5105993;28;20210;-75
2022/10/21 09:55:29;;;;;;;6.75;2.97;;;;;;;13.23;63.23;95511.94;5099592;28;20223;-79
2022/10/21 09:57:59;;;;;;;8.73;5.00;;;;;;;13.37;63.40;95522.66;5103601;28;20198;-80
2022/10/21 10:00:42;;;;;;;11.52;5.93;;;;;;;13.72;62.98;95517.91;5095296;28;20267;-77
2022/10/21 10:03:09;;;;;;;8.85;4.30;;;;;;;14.05;61.19;95510.75;5101553;28;20263;-78
2022/10/21 10:05:42;;;;;;;7.47;5.03;;;;;;;14.24;61.36;95502.94;5106665;28;20267;-78
2022/10/21 10:08:31;;;;;;;8.77;5.18;;;;;;;14.32;61.31;95504.03;5106823;28;20308;-82
2022/10/21 10:11:04;;;;;;;7.15;4.22;;;;;;;14.31;61.27;95496.19;5093191;28;20920;-79
2022/10/21 10:13:31;;;;;;;13.70;8.98;;;;;;;13.81;62.04;95489.50;5096889;28;20205;-78
2022/10/21 10:16:13;;;;;;;13.15;8.57;;;;;;;13.78;62.76;95483.94;5102414;28;20796;-77
2022/10/21 10:18:40;;;;;;;12.23;8.52;;;;;;;14.09;61.97;95484.41;5097811;28;20197;-78
2022/10/21 10:21:11;;;;;;;10.10;5.30;;;;;;;13.97;61.32;95486.25;5100923;28;20226;-77
2022/10/21 10:23:48;;;;;;;14.65;8.82;;;;;;;13.88;62.46;95483.56;5126358;27;20201;-79
2022/10/21 10:26:29;;;;;;;7.30;4.68;;;;;;;13.81;62.17;95483.25;5099715;28;20649;-76
2022/10/21 10:28:59;;;;;;;8.32;4.10;;;;;;;13.83;61.81;95486.47;5102651;28;20229;-79
2022/10/21 10:31:32;;;;;;;10.73;5.00;;;;;;;13.71;62.17;95483.63;5106391;28;20256;-77
2022/10/21 10:34:03;;;;;;;10.13;5.90;;;;;;;14.09;61.98;95476.25;5092206;28;20209;-76
2022/10/21 10:36:34;;;;;;;13.18;5.18;;;;;;;14.24;61.26;95475.69;5105805;28;20645;-83
2022/10/21 10:39:06;;;;;;;8.60;5.57;;;;;;;14.03;61.89;95474.06;5106124;28;20243;-79
2022/10/21 10:41:37;;;;;;;13.82;8.82;;;;;;;14.09;61.51;95473.53;5092809;28;20672;-82
2022/10/21 10:44:10;;;;;;;14.60;9.07;;;;;;;14.14;61.51;95467.09;5092900;28;20206;-78
2022/10/21 10:46:39;;;;;;;11.05;6.30;;;;;;;14.28;60.60;95464.13;5091975;28;20193;-80
2022/10/21 10:49:20;;;;;;;10.80;5.90;;;;;;;14.46;60.54;95454.75;5092067;28;20622;-79
2022/10/21 10:51:48;;;;;;;12.27;5.45;;;;;;;14.71;60.45;95442.84;5092179;28;20214;-79
2022/10/21 10:54:22;;;;;;;7.45;4.70;;;;;;;14.66;59.47;95440.31;5092966;28;20202;-80
2022/10/21 10:56:53;;;;;;;14.13;6.25;;;;;;;14.67;59.52;95444.63;5092533;28;20194;-79
2022/10/21 10:59:32;;;;;;;7.47;4.47;;;;;;;14.69;59.09;95436.91;5091643;28;20267;-80
2022/10/21 11:02:13;;;;;;;9.40;4.93;;;;;;;14.58;59.61;95436.53;5093680;28;20216;-80
2022/10/21 11:04:46;;;;;;;11.52;4.97;;;;;;;14.76;59.43;95430.94;5101440;28;20194;-79
2022/10/21 11:07:21;;;;;;;8.23;4.93;;;;;;;14.90;59.62;95425.97;5104950;28;20555;-78
2022/10/21 11:09:52;;;;;;;12.45;8.15;;;;;;;15.14;58.71;95417.88;5103184;28;20573;-79
2022/10/21 11:12:24;;;;;;;11.88;6.05;;;;;;;15.57;58.57;95417.44;5091086;28;20244;-79
2022/10/21 11:14:55;;;;;;;11.68;5.95;;;;;;;15.63;57.08;95413.34;5090378;28;20659;-78
2022/10/21 11:17:28;;;;;;;14.52;8.65;;;;;;;15.01;58.38;95427.16;5099543;28;20691;-82
2022/10/21 11:20:00;;;;;;;12.43;5.60;;;;;;;15.02;58.78;95415.13;5108647;28;20186;-79
2022/10/21 11:22:41;;;;;;;10.30;4.95;;;;;;;14.88;59.31;95409.97;5111295;27;20560;-79
2022/10/21 11:25:19;;;;;;;7.57;4.32;;;;;;;14.90;58.37;95410.41;5093726;27;20208;-80
2022/10/21 11:28:05;;;;;;;9.68;5.38;;;;;;;15.16;57.54;95393.00;5099789;28;20702;-78
2022/10/21 11:30:45;;;;;;;8.10;5.18;;;;;;;14.92;58.38;95391.75;5096453;28;20710;-80
2022/10/21 11:33:25;;;;;;;15.07;8.73;;;;;;;15.02;58.14;95389.78;5092148;28;20594;-83
2022/10/21 11:35:59;;;;;;;10.80;6.15;;;;;;;14.98;58.53;95391.56;5090591;28;20624;-78
2022/10/21 11:38:34;;;;;;;10.80;6.20;;;;;;;15.15;58.64;95394.13;5105913;28;20236;-79
2022/10/21 11:41:12;;;;;;;9.50;5.90;;;;;;;15.43;57.97;95389.63;5098943;28;20212;-79
2022/10/21 11:43:46;;;;;;;8.27;4.65;;;;;;;15.53;57.21;95385.66;5102843;28;20607;-80
2022/10/21 11:46:22;;;;;;;10.90;5.85;;;;;;;15.54;56.60;95373.59;5099988;28;20692;-81
2022/10/21 11:49:17;;;;;;;9.32;4.97;;;;;;;15.39;56.61;95375.06;5098798;28;20645;-84
2022/10/21 11:51:52;;;;;;;9.73;5.70;;;;;;;15.53;56.56;95372.78;5097698;28;20278;-79